Time;durP1;ratioP1;P1;durP2;ratioP2;P2;SDS_P1;SDS_P2;PMS_P1;PMS_P2;Temp;Humidity;BMP_temperature;BMP_pressure;BME280_temperature;BME280_humidity;BME280_pressure;Samples;Min_cycle;Max_cycle;Signal;HPM_P1;HPM_P2
2024/04/03 00:00:37;;;;;;;28.27;15.20;;;;;;;;;;4315910;32;350801;-78
2024/04/03 00:03:04;;;;;;;32.90;17.67;;;;;;;;;;4333321;32;319551;-78
2024/04/03 00:05:31;;;;;;;27.30;16.87;;;;;;;;;;4321622;32;317976;-78
2024/04/03 00:08:00;;;;;;;32.63;17.67;;;;;;;;;;4336616;32;320272;-78
2024/04/03 00:13:13;;;;;;;38.40;15.85;;;;;;;;;;4334827;32;327094;-78
2024/04/03 00:15:39;;;;;;;23.75;13.60;;;;;;;;;;4324361;32;317919;-77
2024/04/03 00:18:06;;;;;;;31.15;14.23;;;;;;;;;;4337323;32;320069;-77
2024/04/03 00:20:34;;;;;;;23.77;12.52;;;;;;;;;;4315255;33;319044;-77
2024/04/03 00:23:04;;;;;;;27.67;13.38;;;;;;;;;;4317685;33;317660;-78
2024/04/03 00:25:31;;;;;;;26.25;13.32;;;;;;;;;;4294089;33;318976;-77
2024/04/03 00:28:01;;;;;;;26.23;14.15;;;;;;;;;;4321024;33;317768;-78
2024/04/03 00:30:35;;;;;;;27.20;14.60;;;;;;;;;;4323392;33;318952;-78
2024/04/03 00:33:04;;;;;;;26.80;14.70;;;;;;;;;;4333359;33;317553;-78
2024/04/03 00:35:31;;;;;;;23.33;14.32;;;;;;;;;;4313926;33;318697;-78
2024/04/03 00:38:00;;;;;;;25.60;13.80;;;;;;;;;;4328091;32;318876;-78
2024/04/03 00:40:28;;;;;;;30.50;15.15;;;;;;;;;;4315239;32;319398;-78
2024/04/03 00:42:55;;;;;;;25.55;15.60;;;;;;;;;;4310312;33;318075;-78
2024/04/03 00:45:20;;;;;;;29.87;14.38;;;;;;;;;;4306233;33;353790;-78
2024/04/03 00:47:51;;;;;;;34.78;16.60;;;;;;;;;;4316111;32;319308;-77
2024/04/03 00:50:18;;;;;;;31.80;14.60;;;;;;;;;;4332805;32;318872;-78
2024/04/03 00:52:49;;;;;;;27.73;14.73;;;;;;;;;;4323277;32;318879;-78
2024/04/03 00:55:14;;;;;;;25.73;14.93;;;;;;;;;;4332726;32;318832;-78
2024/04/03 01:00:22;;;;;;;29.17;15.20;;;;;;;;;;4332773;32;318944;-78
2024/04/03 01:02:51;;;;;;;22.73;13.15;;;;;;;;;;4323102;32;319678;-78
2024/04/03 01:05:19;;;;;;;25.92;13.38;;;;;;;;;;4331028;32;351727;-78
2024/04/03 01:07:47;;;;;;;26.92;13.93;;;;;;;;;;4318103;32;341935;-78
2024/04/03 01:10:18;;;;;;;27.35;14.75;;;;;;;;;;4339683;32;318773;-78
2024/04/03 01:12:44;;;;;;;23.95;12.98;;;;;;;;;;4321659;32;318806;-78
2024/04/03 01:15:11;;;;;;;28.80;14.10;;;;;;;;;;4331820;32;318834;-78
2024/04/03 01:17:39;;;;;;;25.17;13.60;;;;;;;;;;4324384;32;318948;-78
2024/04/03 01:20:08;;;;;;;24.10;14.73;;;;;;;;;;4334128;32;318761;-78
2024/04/03 01:22:37;;;;;;;25.35;13.18;;;;;;;;;;4312395;32;318686;-78
2024/04/03 01:25:06;;;;;;;20.95;12.77;;;;;;;;;;4320393;33;318877;-78
2024/04/03 01:27:32;;;;;;;35.25;13.40;;;;;;;;;;4319267;33;356918;-78
2024/04/03 01:30:00;;;;;;;21.87;12.13;;;;;;;;;;4293608;33;418399;-77
2024/04/03 01:32:29;;;;;;;28.87;14.07;;;;;;;;;;4311163;33;323926;-77
2024/04/03 01:34:56;;;;;;;22.83;13.13;;;;;;;;;;4318072;32;319495;-77
2024/04/03 01:37:24;;;;;;;27.90;12.43;;;;;;;;;;4335217;32;319258;-77
2024/04/03 01:39:52;;;;;;;20.55;12.65;;;;;;;;;;4310951;32;319041;-77
2024/04/03 01:42:21;;;;;;;23.52;11.25;;;;;;;;;;4337119;32;319319;-77
2024/04/03 01:44:48;;;;;;;21.20;11.97;;;;;;;;;;4316559;32;342734;-77
2024/04/03 01:47:18;;;;;;;24.58;11.80;;;;;;;;;;4337504;32;319711;-77
2024/04/03 01:49:44;;;;;;;23.62;12.10;;;;;;;;;;4319735;32;318758;-77
2024/04/03 01:52:13;;;;;;;18.95;10.50;;;;;;;;;;4334522;32;318742;-77
2024/04/03 01:54:38;;;;;;;20.27;11.33;;;;;;;;;;4323165;32;354060;-77
2024/04/03 01:57:08;;;;;;;22.05;10.90;;;;;;;;;;4334194;32;318736;-77
2024/04/03 01:59:36;;;;;;;19.00;10.48;;;;;;;;;;4322792;32;319073;-77
2024/04/03 02:02:04;;;;;;;24.12;11.27;;;;;;;;;;4327978;32;318744;-77
2024/04/03 02:04:31;;;;;;;19.85;10.07;;;;;;;;;;4333716;32;319466;-77
2024/04/03 02:07:01;;;;;;;21.05;10.93;;;;;;;;;;4335440;32;419868;-77
2024/04/03 02:09:28;;;;;;;23.98;13.02;;;;;;;;;;4340688;32;319185;-77
2024/04/03 02:11:56;;;;;;;20.45;12.63;;;;;;;;;;4325039;32;319163;-77
2024/04/03 02:14:23;;;;;;;21.83;11.70;;;;;;;;;;4336437;32;319231;-77
2024/04/03 02:16:51;;;;;;;24.40;10.88;;;;;;;;;;4323980;32;319267;-77
2024/04/03 02:19:17;;;;;;;23.23;10.68;;;;;;;;;;4327607;32;318865;-77
2024/04/03 02:21:48;;;;;;;25.05;10.57;;;;;;;;;;4320088;32;319073;-77
2024/04/03 02:24:15;;;;;;;24.42;12.20;;;;;;;;;;4344969;32;318793;-77
2024/04/03 02:26:43;;;;;;;28.73;11.70;;;;;;;;;;4339971;32;319440;-77
2024/04/03 02:29:11;;;;;;;19.65;10.40;;;;;;;;;;4349447;32;319139;-77
2024/04/03 02:31:39;;;;;;;24.75;11.57;;;;;;;;;;4336298;32;360779;-77
2024/04/03 02:34:17;;;;;;;15.52;9.45;;;;;;;;;;4343103;32;332131;-77
2024/04/03 02:36:45;;;;;;;21.15;10.95;;;;;;;;;;4338500;32;317897;-77
2024/04/03 02:39:11;;;;;;;24.08;11.32;;;;;;;;;;4349111;32;317803;-77
2024/04/03 02:41:38;;;;;;;22.40;10.68;;;;;;;;;;4330548;32;318956;-77
2024/04/03 02:44:05;;;;;;;23.00;11.30;;;;;;;;;;4341568;32;340741;-77
2024/04/03 02:46:32;;;;;;;19.12;10.48;;;;;;;;;;4339340;32;319431;-77
2024/04/03 02:48:58;;;;;;;20.50;9.93;;;;;;;;;;4349076;32;318892;-77
2024/04/03 02:51:27;;;;;;;23.15;10.50;;;;;;;;;;4341544;32;317940;-77
2024/04/03 02:53:55;;;;;;;22.08;11.35;;;;;;;;;;4331167;32;319292;-77
2024/04/03 02:56:24;;;;;;;17.48;10.20;;;;;;;;;;4349379;32;318560;-77
2024/04/03 02:58:49;;;;;;;19.25;11.43;;;;;;;;;;4339726;32;318824;-78
2024/04/03 03:01:16;;;;;;;23.00;11.70;;;;;;;;;;4349189;32;318841;-77
2024/04/03 03:03:43;;;;;;;21.58;11.43;;;;;;;;;;4327560;32;319086;-77
2024/04/03 03:06:11;;;;;;;19.30;10.70;;;;;;;;;;4348226;32;317773;-77
2024/04/03 03:08:40;;;;;;;22.23;11.00;;;;;;;;;;4337205;32;319266;-77
2024/04/03 03:11:07;;;;;;;19.13;10.10;;;;;;;;;;4347998;32;319026;-77
2024/04/03 03:13:32;;;;;;;25.95;10.88;;;;;;;;;;4327778;32;328346;-77
2024/04/03 03:16:01;;;;;;;19.02;10.15;;;;;;;;;;4341831;32;319366;-77
2024/04/03 03:18:31;;;;;;;23.03;10.83;;;;;;;;;;4333394;32;318674;-77
2024/04/03 03:20:58;;;;;;;22.50;11.87;;;;;;;;;;4307915;32;418160;-77
2024/04/03 03:23:25;;;;;;;18.70;11.87;;;;;;;;;;4332798;32;319222;-77
2024/04/03 03:26:01;;;;;;;24.00;12.70;;;;;;;;;;4318422;32;318795;-77
2024/04/03 03:28:26;;;;;;;22.97;12.37;;;;;;;;;;4348599;32;318819;-77
2024/04/03 03:30:58;;;;;;;29.77;13.90;;;;;;;;;;4338504;32;344758;-77
2024/04/03 03:33:25;;;;;;;25.67;14.30;;;;;;;;;;4347831;32;319340;-77
2024/04/03 03:36:03;;;;;;;27.30;12.77;;;;;;;;;;4332672;32;318976;-77
2024/04/03 03:38:34;;;;;;;25.97;12.87;;;;;;;;;;4343816;32;317870;-77
2024/04/03 03:41:08;;;;;;;19.42;11.02;;;;;;;;;;4305802;32;418693;-77
2024/04/03 03:43:36;;;;;;;16.43;9.77;;;;;;;;;;4336122;32;339689;-77
2024/04/03 03:46:04;;;;;;;16.40;9.20;;;;;;;;;;4325349;32;316669;-77
2024/04/03 03:53:58;;;;;;;17.50;8.97;;;;;;;;;;4324897;32;317646;-77
2024/04/03 03:56:28;;;;;;;14.17;9.33;;;;;;;;;;4348412;32;318320;-77
2024/04/03 03:58:55;;;;;;;31.33;9.87;;;;;;;;;;4338236;32;318061;-77
2024/04/03 04:01:22;;;;;;;27.17;9.63;;;;;;;;;;4347263;32;317918;-78
2024/04/03 04:03:49;;;;;;;19.57;9.47;;;;;;;;;;4331546;32;317976;-77
2024/04/03 04:06:16;;;;;;;22.07;11.73;;;;;;;;;;4347618;32;318185;-77
2024/04/03 04:08:41;;;;;;;23.13;11.63;;;;;;;;;;4335213;32;349436;-77
2024/04/03 04:11:08;;;;;;;24.00;11.47;;;;;;;;;;4337453;32;318974;-77
2024/04/03 04:13:38;;;;;;;19.27;11.50;;;;;;;;;;4328188;32;319158;-77
2024/04/03 04:16:06;;;;;;;25.97;11.43;;;;;;;;;;4332080;32;319206;-77
2024/04/03 04:18:33;;;;;;;20.43;12.20;;;;;;;;;;4321580;32;318455;-77
2024/04/03 04:21:03;;;;;;;23.20;10.87;;;;;;;;;;4337706;32;319391;-78
2024/04/03 04:23:37;;;;;;;18.23;10.43;;;;;;;;;;4337042;32;355136;-78
2024/04/03 04:26:04;;;;;;;20.47;9.60;;;;;;;;;;4329739;32;420075;-78
2024/04/03 04:28:31;;;;;;;21.63;10.63;;;;;;;;;;4345892;32;360140;-77
2024/04/03 04:31:05;;;;;;;27.03;9.53;;;;;;;;;;4321480;32;420160;-77
2024/04/03 04:33:33;;;;;;;18.83;9.80;;;;;;;;;;4331268;32;318365;-78
2024/04/03 04:35:59;;;;;;;23.07;9.10;;;;;;;;;;4326217;32;417359;-77
2024/04/03 04:38:27;;;;;;;22.57;10.53;;;;;;;;;;4354047;32;317853;-77
2024/04/03 04:40:58;;;;;;;19.70;9.33;;;;;;;;;;4337893;32;317705;-78
2024/04/03 04:43:25;;;;;;;22.43;10.00;;;;;;;;;;4351832;32;316944;-78
2024/04/03 04:45:57;;;;;;;18.97;9.67;;;;;;;;;;4329287;32;319408;-77
2024/04/03 04:48:25;;;;;;;21.63;9.53;;;;;;;;;;4335922;32;317483;-78
2024/04/03 04:50:52;;;;;;;22.83;8.80;;;;;;;;;;4325386;32;318252;-77
2024/04/03 04:53:19;;;;;;;24.40;10.80;;;;;;;;;;4332733;32;318457;-77
2024/04/03 04:55:52;;;;;;;19.13;9.37;;;;;;;;;;4318702;32;319575;-77
2024/04/03 04:58:19;;;;;;;24.07;9.30;;;;;;;;;;4334627;32;317607;-78
2024/04/03 05:00:45;;;;;;;21.83;9.30;;;;;;;;;;4323208;32;318334;-78
2024/04/03 05:03:11;;;;;;;28.10;9.60;;;;;;;;;;4338808;32;318693;-78
2024/04/03 05:05:39;;;;;;;21.50;10.03;;;;;;;;;;4326342;32;318143;-79
2024/04/03 05:08:07;;;;;;;25.33;11.03;;;;;;;;;;4324406;32;318663;-78
2024/04/03 05:10:33;;;;;;;19.73;11.13;;;;;;;;;;4310108;33;319352;-77
2024/04/03 05:12:59;;;;;;;22.77;11.43;;;;;;;;;;4319058;33;319480;-77
2024/04/03 05:15:28;;;;;;;19.83;9.27;;;;;;;;;;4328833;32;319267;-77
2024/04/03 05:17:55;;;;;;;23.90;10.80;;;;;;;;;;4331510;32;318221;-77
2024/04/03 05:20:20;;;;;;;19.20;9.43;;;;;;;;;;4348481;32;319485;-77
2024/04/03 05:22:48;;;;;;;22.40;10.53;;;;;;;;;;4339011;32;318350;-77
2024/04/03 05:25:14;;;;;;;26.37;9.90;;;;;;;;;;4345940;32;319151;-78
2024/04/03 05:27:41;;;;;;;20.60;10.87;;;;;;;;;;4324049;32;317517;-78
2024/04/03 05:30:08;;;;;;;36.33;15.93;;;;;;;;;;4327700;32;341526;-77
2024/04/03 05:32:34;;;;;;;26.43;10.50;;;;;;;;;;4324148;32;319318;-77
2024/04/03 05:35:00;;;;;;;26.03;9.97;;;;;;;;;;4334075;32;319336;-77
2024/04/03 05:37:27;;;;;;;25.83;9.83;;;;;;;;;;4333607;32;318736;-77
2024/04/03 05:39:54;;;;;;;21.00;9.47;;;;;;;;;;4315878;32;318400;-75
2024/04/03 05:42:21;;;;;;;20.13;9.80;;;;;;;;;;4326169;32;318456;-75
2024/04/03 05:44:46;;;;;;;20.77;9.63;;;;;;;;;;4315676;32;318312;-75
2024/04/03 05:47:14;;;;;;;36.77;11.53;;;;;;;;;;4331212;32;318199;-78
2024/04/03 05:49:40;;;;;;;31.47;13.60;;;;;;;;;;4320025;32;348285;-78
2024/04/03 05:52:07;;;;;;;33.60;11.37;;;;;;;;;;4324448;32;319349;-78
2024/04/03 05:54:33;;;;;;;43.33;12.00;;;;;;;;;;4321345;32;328944;-78
2024/04/03 05:57:01;;;;;;;42.40;12.93;;;;;;;;;;4334734;32;319496;-77
2024/04/03 05:59:27;;;;;;;44.07;14.40;;;;;;;;;;4341709;32;336005;-77
2024/04/03 06:01:53;;;;;;;35.43;12.87;;;;;;;;;;4315313;32;319390;-78
2024/04/03 06:04:19;;;;;;;26.77;11.03;;;;;;;;;;4332856;32;319896;-77
2024/04/03 06:06:45;;;;;;;26.20;11.03;;;;;;;;;;4334227;32;319511;-77
2024/04/03 06:09:11;;;;;;;29.40;9.60;;;;;;;;;;4347471;32;319299;-77
2024/04/03 06:11:38;;;;;;;42.47;11.53;;;;;;;;;;4338494;32;318299;-77
2024/04/03 06:14:05;;;;;;;24.55;11.07;;;;;;;;;;4340647;32;349298;-77
2024/04/03 06:16:32;;;;;;;19.93;9.47;;;;;;;;;;4341188;32;359663;-77
2024/04/03 06:19:00;;;;;;;28.00;10.07;;;;;;;;;;4332139;32;417026;-76
2024/04/03 06:21:27;;;;;;;19.13;9.10;;;;;;;;;;4341395;32;319407;-76
2024/04/03 06:23:53;;;;;;;25.42;9.85;;;;;;;;;;4314574;32;328852;-76
2024/04/03 06:26:20;;;;;;;19.60;9.87;;;;;;;;;;4331087;32;355131;-76
2024/04/03 06:28:46;;;;;;;26.13;9.60;;;;;;;;;;4323707;32;318131;-76
2024/04/03 06:31:14;;;;;;;24.77;9.50;;;;;;;;;;4332760;32;318266;-76
2024/04/03 06:33:39;;;;;;;20.50;9.33;;;;;;;;;;4320251;32;318365;-76
2024/04/03 06:36:06;;;;;;;20.00;8.93;;;;;;;;;;4326137;32;318250;-76
2024/04/03 06:38:32;;;;;;;16.17;7.47;;;;;;;;;;4322365;32;318360;-76
2024/04/03 06:40:59;;;;;;;18.85;9.18;;;;;;;;;;4333011;32;318248;-77
2024/04/03 06:43:24;;;;;;;18.30;9.13;;;;;;;;;;4343630;32;318250;-76
2024/04/03 06:45:55;;;;;;;21.07;8.10;;;;;;;;;;4329169;32;317596;-76
2024/04/03 06:48:23;;;;;;;15.47;7.63;;;;;;;;;;4344974;32;318123;-77
2024/04/03 06:50:53;;;;;;;11.87;7.27;;;;;;;;;;4323270;32;318347;-77
2024/04/03 06:53:19;;;;;;;16.07;8.20;;;;;;;;;;4340784;32;318000;-77
2024/04/03 06:55:55;;;;;;;19.03;7.90;;;;;;;;;;4329142;32;339789;-76
2024/04/03 06:58:20;;;;;;;19.63;8.20;;;;;;;;;;4347416;32;318173;-77
2024/04/03 07:00:47;;;;;;;16.37;7.60;;;;;;;;;;4337401;32;318205;-77
2024/04/03 07:03:13;;;;;;;17.90;7.00;;;;;;;;;;4346311;32;343251;-77
2024/04/03 07:05:41;;;;;;;18.40;7.73;;;;;;;;;;4335336;32;318930;-76
2024/04/03 07:08:06;;;;;;;10.80;6.07;;;;;;;;;;4341295;32;318218;-76
2024/04/03 07:10:34;;;;;;;19.30;6.30;;;;;;;;;;4336976;32;318362;-76
2024/04/03 07:13:02;;;;;;;17.50;6.13;;;;;;;;;;4344341;32;318110;-77
2024/04/03 07:15:29;;;;;;;9.27;5.37;;;;;;;;;;4340560;32;318188;-78
2024/04/03 07:17:55;;;;;;;15.38;5.30;;;;;;;;;;4300505;32;316946;-78
2024/04/03 07:20:24;;;;;;;10.30;5.62;;;;;;;;;;4318345;32;318286;-76
2024/04/03 07:22:52;;;;;;;9.93;5.45;;;;;;;;;;4307959;32;318237;-76
2024/04/03 07:25:19;;;;;;;14.90;5.30;;;;;;;;;;4318472;32;316710;-76
2024/04/03 07:27:46;;;;;;;14.77;5.37;;;;;;;;;;4304595;32;348481;-76
2024/04/03 07:30:13;;;;;;;18.37;6.10;;;;;;;;;;4329890;32;318903;-76
2024/04/03 07:32:39;;;;;;;12.05;6.00;;;;;;;;;;4320035;32;318313;-76
2024/04/03 07:35:06;;;;;;;13.40;5.05;;;;;;;;;;4333474;32;318285;-79
2024/04/03 07:37:32;;;;;;;10.73;5.75;;;;;;;;;;4328633;32;353304;-78
2024/04/03 07:40:00;;;;;;;16.85;5.60;;;;;;;;;;4328438;32;318199;-78
2024/04/03 07:42:25;;;;;;;16.70;6.35;;;;;;;;;;4316740;33;318298;-77
2024/04/03 07:44:52;;;;;;;14.38;6.03;;;;;;;;;;4316785;32;318263;-78
2024/04/03 07:47:18;;;;;;;13.02;6.40;;;;;;;;;;4316093;33;318694;-78
2024/04/03 07:49:47;;;;;;;12.45;5.43;;;;;;;;;;4299349;33;318740;-77
2024/04/03 07:52:13;;;;;;;12.10;4.55;;;;;;;;;;4320678;32;325592;-77
2024/04/03 07:54:39;;;;;;;11.10;4.95;;;;;;;;;;4320885;32;356162;-78
2024/04/03 07:57:07;;;;;;;8.98;4.37;;;;;;;;;;4330971;32;318237;-77
2024/04/03 07:59:34;;;;;;;6.82;5.07;;;;;;;;;;4321926;32;317379;-78
2024/04/03 08:02:00;;;;;;;10.10;5.15;;;;;;;;;;4332557;32;317061;-77
2024/04/03 08:04:27;;;;;;;12.60;5.72;;;;;;;;;;4346253;32;318114;-76
2024/04/03 08:06:52;;;;;;;11.35;4.85;;;;;;;;;;4336058;32;317963;-76
2024/04/03 08:09:19;;;;;;;30.27;6.30;;;;;;;;;;4339536;32;318253;-76
2024/04/03 08:11:47;;;;;;;19.37;5.28;;;;;;;;;;4316140;32;318400;-78
2024/04/03 08:14:15;;;;;;;9.30;3.60;;;;;;;;;;4341569;32;318168;-77
2024/04/03 08:16:41;;;;;;;8.60;3.72;;;;;;;;;;4325006;32;349247;-77
2024/04/03 08:19:08;;;;;;;37.97;4.00;;;;;;;;;;4331290;32;317040;-77
2024/04/03 08:21:34;;;;;;;6.85;2.58;;;;;;;;;;4321284;32;318200;-77
2024/04/03 08:24:00;;;;;;;13.80;3.40;;;;;;;;;;4324730;32;317760;-77
2024/04/03 08:26:26;;;;;;;12.30;4.57;;;;;;;;;;4330084;32;318569;-77
2024/04/03 08:28:53;;;;;;;9.27;2.25;;;;;;;;;;4320362;32;318311;-77
2024/04/03 08:31:20;;;;;;;12.63;2.45;;;;;;;;;;4331227;32;317156;-77
2024/04/03 08:33:47;;;;;;;4.03;2.12;;;;;;;;;;4315603;32;318430;-77
2024/04/03 08:36:13;;;;;;;9.20;1.95;;;;;;;;;;4340494;32;350522;-77
2024/04/03 08:38:40;;;;;;;5.60;1.90;;;;;;;;;;4334807;32;324027;-77
2024/04/03 08:41:06;;;;;;;6.05;2.15;;;;;;;;;;4344728;32;335910;-76
2024/04/03 08:43:34;;;;;;;5.60;2.10;;;;;;;;;;4325031;32;317206;-76
2024/04/03 08:46:00;;;;;;;5.30;2.20;;;;;;;;;;4337537;32;317660;-76
2024/04/03 08:48:29;;;;;;;8.20;3.03;;;;;;;;;;4344808;32;317337;-76
2024/04/03 08:50:56;;;;;;;7.40;2.20;;;;;;;;;;4335647;32;317314;-76
2024/04/03 08:53:24;;;;;;;9.65;2.22;;;;;;;;;;4346688;32;317509;-76
2024/04/03 08:55:52;;;;;;;8.85;1.80;;;;;;;;;;4330250;32;317164;-77
2024/04/03 08:58:19;;;;;;;4.50;1.98;;;;;;;;;;4345965;32;317756;-76
2024/04/03 09:00:44;;;;;;;11.50;1.60;;;;;;;;;;4335124;32;317448;-76
2024/04/03 09:03:13;;;;;;;7.03;2.42;;;;;;;;;;4345640;32;318416;-76
2024/04/03 09:05:40;;;;;;;3.70;2.05;;;;;;;;;;4336141;32;317167;-75
2024/04/03 09:08:09;;;;;;;5.25;1.62;;;;;;;;;;4339612;32;317155;-76
2024/04/03 09:10:38;;;;;;;12.48;2.53;;;;;;;;;;4335265;32;317346;-77
2024/04/03 09:13:06;;;;;;;6.72;1.77;;;;;;;;;;4345315;32;318354;-76
2024/04/03 09:15:32;;;;;;;9.35;2.10;;;;;;;;;;4336261;32;317285;-76
2024/04/03 09:18:02;;;;;;;4.40;1.60;;;;;;;;;;4340148;32;317280;-76
2024/04/03 09:20:28;;;;;;;6.18;2.35;;;;;;;;;;4345201;32;316617;-76
2024/04/03 09:22:57;;;;;;;6.60;2.55;;;;;;;;;;4334853;32;317244;-76
2024/04/03 09:25:25;;;;;;;7.82;2.17;;;;;;;;;;4346008;32;316621;-76
2024/04/03 09:27:59;;;;;;;7.57;3.10;;;;;;;;;;4331349;32;317339;-76
2024/04/03 09:30:24;;;;;;;6.60;2.72;;;;;;;;;;4349093;32;317308;-77
2024/04/03 09:32:56;;;;;;;6.65;2.90;;;;;;;;;;4339519;32;317251;-76
2024/04/03 09:35:26;;;;;;;6.45;3.37;;;;;;;;;;4347047;32;317212;-76
2024/04/03 09:37:53;;;;;;;4.85;2.42;;;;;;;;;;4330875;32;354563;-76
2024/04/03 09:40:23;;;;;;;7.28;2.80;;;;;;;;;;4348793;32;317377;-76
2024/04/03 09:42:54;;;;;;;43.65;5.62;;;;;;;;;;4333863;32;335462;-76
2024/04/03 09:45:20;;;;;;;7.53;2.83;;;;;;;;;;4348008;32;318464;-76
2024/04/03 09:47:54;;;;;;;5.25;3.20;;;;;;;;;;4331102;32;317172;-76
2024/04/03 09:50:21;;;;;;;4.87;2.78;;;;;;;;;;4338437;32;355844;-76
2024/04/03 09:52:50;;;;;;;5.75;2.55;;;;;;;;;;4336992;32;317443;-76
2024/04/03 09:55:20;;;;;;;5.60;2.62;;;;;;;;;;4347326;32;317595;-76
2024/04/03 09:57:47;;;;;;;4.07;2.22;;;;;;;;;;4330437;32;317335;-76
2024/04/03 10:00:15;;;;;;;5.53;2.50;;;;;;;;;;4347593;32;317199;-76
2024/04/03 10:02:47;;;;;;;8.32;2.85;;;;;;;;;;4337900;32;317314;-76
2024/04/03 10:05:14;;;;;;;7.37;2.20;;;;;;;;;;4337986;32;316700;-76
2024/04/03 10:07:39;;;;;;;36.15;3.12;;;;;;;;;;4332161;32;317331;-76
2024/04/03 10:10:16;;;;;;;7.18;2.60;;;;;;;;;;4341491;32;318564;-76
2024/04/03 10:12:43;;;;;;;6.32;2.10;;;;;;;;;;4338262;32;318247;-76
2024/04/03 10:15:11;;;;;;;5.65;2.40;;;;;;;;;;4346995;32;319015;-76
2024/04/03 10:17:38;;;;;;;5.53;2.45;;;;;;;;;;4336188;32;330711;-76
2024/04/03 10:20:05;;;;;;;6.28;1.45;;;;;;;;;;4341948;32;317032;-77
2024/04/03 10:22:31;;;;;;;5.62;2.00;;;;;;;;;;4340084;32;317315;-76
2024/04/03 10:24:58;;;;;;;10.13;1.90;;;;;;;;;;4348411;32;317251;-77
2024/04/03 10:27:24;;;;;;;9.88;2.08;;;;;;;;;;4347704;32;317788;-76
2024/04/03 10:30:00;;;;;;;10.30;2.50;;;;;;;;;;4331442;32;317413;-77
2024/04/03 10:32:28;;;;;;;7.60;2.00;;;;;;;;;;4347275;32;318872;-76
2024/04/03 10:34:56;;;;;;;4.53;1.90;;;;;;;;;;4331731;32;317652;-75
2024/04/03 10:37:21;;;;;;;5.90;1.98;;;;;;;;;;4332861;32;317197;-76
2024/04/03 10:39:52;;;;;;;4.82;1.67;;;;;;;;;;4315648;32;317310;-77
2024/04/03 10:42:17;;;;;;;9.30;2.00;;;;;;;;;;4343089;32;317579;-76
2024/04/03 10:44:44;;;;;;;3.22;2.10;;;;;;;;;;4322922;32;317364;-76
2024/04/03 10:47:11;;;;;;;3.85;1.67;;;;;;;;;;4340747;32;317268;-76
2024/04/03 10:49:41;;;;;;;3.72;1.77;;;;;;;;;;4337737;32;317423;-76
2024/04/03 10:52:07;;;;;;;6.43;1.80;;;;;;;;;;4342155;32;316744;-77
2024/04/03 10:54:34;;;;;;;4.62;1.50;;;;;;;;;;4337751;32;317250;-77
2024/04/03 10:57:01;;;;;;;3.25;1.27;;;;;;;;;;4346219;32;317304;-77
2024/04/03 10:59:27;;;;;;;4.70;1.37;;;;;;;;;;4347304;32;317193;-76
2024/04/03 11:01:53;;;;;;;2.47;1.25;;;;;;;;;;4329045;32;317369;-77
2024/04/03 11:04:20;;;;;;;5.47;1.30;;;;;;;;;;4345457;32;317353;-76
2024/04/03 11:06:47;;;;;;;4.82;1.50;;;;;;;;;;4337715;32;317414;-78
2024/04/03 11:09:14;;;;;;;4.53;1.55;;;;;;;;;;4347016;32;328149;-77
2024/04/03 11:11:41;;;;;;;7.12;1.92;;;;;;;;;;4337169;32;317285;-77
2024/04/03 11:14:08;;;;;;;5.95;1.62;;;;;;;;;;4342012;32;317260;-76
2024/04/03 11:16:35;;;;;;;4.60;1.33;;;;;;;;;;4338553;32;317456;-77
2024/04/03 11:19:03;;;;;;;3.65;1.70;;;;;;;;;;4348616;32;317653;-77
2024/04/03 11:21:30;;;;;;;7.18;1.33;;;;;;;;;;4344419;32;317291;-76
2024/04/03 11:23:59;;;;;;;6.12;1.35;;;;;;;;;;4322248;32;324415;-77
2024/04/03 11:26:25;;;;;;;4.30;1.45;;;;;;;;;;4331392;32;317316;-76
2024/04/03 11:28:52;;;;;;;2.40;1.40;;;;;;;;;;4322688;32;317523;-76
2024/04/03 11:31:17;;;;;;;8.60;1.83;;;;;;;;;;4345594;32;317298;-76
2024/04/03 11:33:44;;;;;;;8.43;1.80;;;;;;;;;;4330923;32;318063;-75
2024/04/03 11:36:10;;;;;;;6.12;1.65;;;;;;;;;;4333871;32;317243;-75
2024/04/03 11:38:36;;;;;;;4.45;1.50;;;;;;;;;;4321642;32;323699;-75
2024/04/03 11:41:04;;;;;;;3.95;0.98;;;;;;;;;;4330902;32;317270;-78
2024/04/03 11:43:31;;;;;;;6.12;1.60;;;;;;;;;;4337661;32;317286;-79
2024/04/03 11:45:56;;;;;;;2.22;1.35;;;;;;;;;;4313825;32;416321;-79
2024/04/03 11:48:24;;;;;;;3.03;1.33;;;;;;;;;;4347039;32;316733;-78
2024/04/03 11:50:50;;;;;;;4.95;1.48;;;;;;;;;;4335833;32;316585;-78
2024/04/03 11:53:16;;;;;;;6.03;1.92;;;;;;;;;;4342571;32;317420;-78
2024/04/03 11:55:43;;;;;;;5.45;1.73;;;;;;;;;;4333488;32;317378;-79
2024/04/03 11:58:13;;;;;;;5.97;1.67;;;;;;;;;;4344453;32;321840;-78
2024/04/03 12:00:39;;;;;;;2.30;1.50;;;;;;;;;;4335515;32;321742;-79
2024/04/03 12:03:06;;;;;;;13.07;4.00;;;;;;;;;;4344819;32;355154;-78
2024/04/03 12:05:32;;;;;;;4.97;1.80;;;;;;;;;;4330854;32;319453;-77
2024/04/03 12:07:58;;;;;;;2.35;1.42;;;;;;;;;;4336827;32;317186;-77
2024/04/03 12:10:24;;;;;;;6.87;1.70;;;;;;;;;;4343844;32;317234;-77
2024/04/03 12:12:51;;;;;;;7.53;1.90;;;;;;;;;;4329546;32;317799;-78
2024/04/03 12:15:18;;;;;;;12.00;1.67;;;;;;;;;;4346374;32;317195;-76
2024/04/03 12:17:45;;;;;;;7.37;1.80;;;;;;;;;;4330704;32;318374;-77
2024/04/03 12:20:13;;;;;;;5.82;1.55;;;;;;;;;;4347077;32;317436;-78
2024/04/03 12:22:40;;;;;;;8.63;1.85;;;;;;;;;;4344354;32;322818;-81
2024/04/03 12:25:05;;;;;;;4.65;1.90;;;;;;;;;;4333118;32;317320;-80
2024/04/03 12:27:32;;;;;;;3.60;1.80;;;;;;;;;;4348807;32;316643;-81
2024/04/03 12:29:58;;;;;;;7.12;2.00;;;;;;;;;;4341132;32;317377;-81
2024/04/03 12:32:26;;;;;;;2.72;1.25;;;;;;;;;;4349988;32;317266;-81
2024/04/03 12:34:53;;;;;;;3.70;1.62;;;;;;;;;;4336544;32;317958;-80
2024/04/03 12:37:19;;;;;;;4.25;2.03;;;;;;;;;;4337060;32;317654;-81
2024/04/03 12:39:45;;;;;;;6.90;1.80;;;;;;;;;;4339934;32;317666;-81
2024/04/03 12:42:12;;;;;;;2.47;1.30;;;;;;;;;;4349432;32;317211;-81
2024/04/03 12:44:38;;;;;;;7.50;1.67;;;;;;;;;;4349932;32;317074;-81
2024/04/03 12:47:07;;;;;;;6.93;1.58;;;;;;;;;;4334406;32;317415;-80
2024/04/03 12:49:34;;;;;;;3.92;1.80;;;;;;;;;;4350356;32;316471;-80
2024/04/03 12:52:02;;;;;;;3.28;1.52;;;;;;;;;;4340847;32;317322;-80
2024/04/03 12:54:28;;;;;;;3.95;1.33;;;;;;;;;;4349161;32;317168;-81
2024/04/03 12:56:55;;;;;;;6.80;1.87;;;;;;;;;;4337741;32;317231;-80
2024/04/03 12:59:22;;;;;;;9.43;2.10;;;;;;;;;;4348280;32;317247;-80
2024/04/03 13:01:50;;;;;;;7.03;2.12;;;;;;;;;;4340194;32;317268;-80
2024/04/03 13:04:16;;;;;;;3.25;2.00;;;;;;;;;;4352642;32;317357;-80
2024/04/03 13:06:45;;;;;;;5.30;2.30;;;;;;;;;;4351144;32;317220;-80
2024/04/03 13:09:11;;;;;;;5.40;1.62;;;;;;;;;;4333189;32;416727;-81
2024/04/03 13:11:42;;;;;;;6.68;1.92;;;;;;;;;;4338172;32;317142;-80
2024/04/03 13:14:08;;;;;;;9.05;1.73;;;;;;;;;;4339553;32;417905;-81
2024/04/03 13:16:35;;;;;;;7.75;2.00;;;;;;;;;;4351217;32;317259;-80
2024/04/03 13:19:01;;;;;;;7.75;2.33;;;;;;;;;;4323794;32;317292;-80
2024/04/03 13:21:27;;;;;;;5.30;2.00;;;;;;;;;;4337390;32;317243;-80
2024/04/03 13:23:54;;;;;;;5.93;2.22;;;;;;;;;;4327177;32;356418;-80
2024/04/03 13:26:21;;;;;;;5.70;1.95;;;;;;;;;;4335604;32;317462;-79
2024/04/03 13:28:48;;;;;;;7.25;2.10;;;;;;;;;;4325901;32;316566;-79
2024/04/03 13:31:15;;;;;;;9.15;1.90;;;;;;;;;;4331103;32;316964;-80
2024/04/03 13:33:41;;;;;;;3.72;1.55;;;;;;;;;;4336161;32;317254;-80
2024/04/03 13:36:08;;;;;;;6.82;1.87;;;;;;;;;;4340069;32;317361;-80
2024/04/03 13:38:34;;;;;;;7.45;2.70;;;;;;;;;;4351898;32;317221;-80
2024/04/03 13:41:03;;;;;;;7.43;2.28;;;;;;;;;;4336443;32;316971;-79
2024/04/03 13:43:28;;;;;;;5.68;2.12;;;;;;;;;;4349856;32;317426;-79
2024/04/03 13:45:55;;;;;;;5.30;2.12;;;;;;;;;;4340771;32;317296;-79
2024/04/03 13:48:21;;;;;;;6.72;2.22;;;;;;;;;;4351388;32;317260;-79
2024/04/03 13:50:48;;;;;;;6.93;2.03;;;;;;;;;;4341341;32;316470;-80
2024/04/03 13:53:14;;;;;;;11.10;2.25;;;;;;;;;;4327400;32;317190;-80
2024/04/03 13:55:41;;;;;;;8.27;2.33;;;;;;;;;;4336637;32;317525;-79
2024/04/03 13:58:09;;;;;;;5.80;1.60;;;;;;;;;;4325323;32;317323;-80
2024/04/03 14:00:36;;;;;;;6.12;2.20;;;;;;;;;;4340562;32;317056;-80
2024/04/03 14:03:01;;;;;;;3.60;2.15;;;;;;;;;;4331934;32;315706;-79
2024/04/03 14:05:28;;;;;;;5.53;2.20;;;;;;;;;;4347439;32;316816;-78
2024/04/03 14:07:54;;;;;;;11.25;2.45;;;;;;;;;;4338877;32;315296;-80
2024/04/03 14:10:20;;;;;;;4.43;2.08;;;;;;;;;;4348404;32;316419;-80
2024/04/03 14:12:49;;;;;;;4.05;2.17;;;;;;;;;;4337101;32;316822;-80
2024/04/03 14:15:17;;;;;;;5.78;2.03;;;;;;;;;;4333655;32;317284;-82
2024/04/03 14:17:43;;;;;;;4.57;1.85;;;;;;;;;;4337256;32;317142;-82
2024/04/03 14:20:10;;;;;;;3.40;1.85;;;;;;;;;;4337475;32;373135;-82
2024/04/03 14:22:36;;;;;;;13.40;3.00;;;;;;;;;;4351982;32;317461;-83
2024/04/03 14:25:03;;;;;;;4.15;2.00;;;;;;;;;;4340722;32;318398;-81
2024/04/03 14:27:29;;;;;;;8.10;2.50;;;;;;;;;;4360510;32;316962;-80
2024/04/03 14:29:56;;;;;;;4.07;1.97;;;;;;;;;;4351747;32;330481;-81